Time;durP1;ratioP1;P1;durP2;ratioP2;P2;SDS_P1;SDS_P2;PMS_P1;PMS_P2;Temp;Humidity;BMP_temperature;BMP_pressure;BME280_temperature;BME280_humidity;BME280_pressure;Samples;Min_cycle;Max_cycle;Signal;HPM_P1;HPM_P2
2022/08/01 00:01:33;;;;;;;1.60;1.45;;;;;;;23.61;51.92;93420.44;6043015;23;20029;-91
2022/08/01 00:03:59;;;;;;;1.38;1.27;;;;;;;23.60;51.94;93423.75;6042071;23;20047;-92
2022/08/01 00:06:24;;;;;;;1.80;1.50;;;;;;;23.63;52.01;93417.13;6042888;23;20019;-92
2022/08/01 00:08:50;;;;;;;1.30;1.17;;;;;;;23.60;52.06;93415.50;6042370;23;20465;-91
2022/08/01 00:11:15;;;;;;;1.25;1.15;;;;;;;23.60;51.98;93404.44;6041947;23;20054;-91
2022/08/01 00:13:41;;;;;;;1.40;1.30;;;;;;;23.59;52.09;93400.94;6041495;23;20041;-91
2022/08/01 00:16:06;;;;;;;1.50;1.40;;;;;;;23.60;52.02;93396.88;6041073;23;20053;-91
2022/08/01 00:18:32;;;;;;;1.38;1.27;;;;;;;23.60;52.16;93385.13;6041371;23;20045;-91
2022/08/01 00:20:57;;;;;;;1.48;1.38;;;;;;;23.59;52.03;93381.63;6039265;23;20035;-92
2022/08/01 00:23:23;;;;;;;1.40;1.30;;;;;;;23.59;52.08;93378.88;6026730;23;20019;-91
2022/08/01 00:25:48;;;;;;;1.25;1.15;;;;;;;23.58;51.96;93369.84;6049260;23;20296;-91
2022/08/01 00:28:14;;;;;;;1.58;1.48;;;;;;;23.60;51.82;93371.34;6042431;23;20025;-92
2022/08/01 00:30:39;;;;;;;1.50;1.40;;;;;;;23.59;52.21;93365.06;6039985;23;20037;-91
2022/08/01 00:33:05;;;;;;;1.83;1.35;;;;;;;23.60;52.07;93360.28;6042997;23;20022;-92
2022/08/01 00:35:31;;;;;;;1.63;1.35;;;;;;;23.58;52.11;93366.34;6041411;23;20358;-92
2022/08/01 00:37:56;;;;;;;1.70;1.60;;;;;;;23.58;51.95;93363.59;6010956;23;20351;-91
2022/08/01 00:40:21;;;;;;;1.50;1.40;;;;;;;23.59;52.06;93367.84;5989401;23;20027;-91
2022/08/01 00:42:47;;;;;;;1.38;1.10;;;;;;;23.58;52.05;93369.84;5989600;23;20389;-91
2022/08/01 00:45:12;;;;;;;1.55;1.45;;;;;;;23.57;52.14;93373.91;6035832;23;20027;-90
2022/08/01 00:47:38;;;;;;;1.38;1.27;;;;;;;23.57;51.93;93362.84;5987020;23;20023;-91
2022/08/01 00:50:04;;;;;;;1.38;1.27;;;;;;;23.57;52.11;93371.13;6035417;23;20061;-92
2022/08/01 00:52:29;;;;;;;1.65;1.17;;;;;;;23.57;51.96;93371.13;6035535;23;20033;-93
2022/08/01 00:54:55;;;;;;;1.15;1.05;;;;;;;23.56;52.11;93366.91;5986330;23;20380;-92
2022/08/01 00:57:21;;;;;;;1.20;1.10;;;;;;;23.57;52.09;93370.41;5989119;23;20451;-93
2022/08/01 00:59:47;;;;;;;1.50;1.30;;;;;;;23.55;52.02;93370.94;5985107;23;20030;-91
2022/08/01 01:02:12;;;;;;;1.27;1.15;;;;;;;23.57;52.20;93373.91;6034918;23;20023;-91
2022/08/01 01:04:38;;;;;;;1.35;1.17;;;;;;;23.56;52.05;93368.94;5986377;23;20391;-91
2022/08/01 01:07:21;;;;;;;1.50;1.40;;;;;;;23.57;51.89;93375.91;6034557;23;20380;-91
2022/08/01 01:10:02;;;;;;;1.50;1.40;;;;;;;23.56;52.17;93368.94;6033776;23;20053;-92
2022/08/01 01:12:45;;;;;;;1.20;1.10;;;;;;;23.57;51.92;93378.69;6038936;23;20086;-91
2022/08/01 01:15:22;;;;;;;1.45;1.30;;;;;;;23.55;52.12;93373.69;6087307;23;20450;-91
2022/08/01 01:17:56;;;;;;;1.50;1.40;;;;;;;23.56;52.06;93369.66;6041150;23;20026;-92
2022/08/01 01:20:26;;;;;;;1.70;1.40;;;;;;;23.54;52.16;93372.22;6112267;23;20081;-91
2022/08/01 01:22:53;;;;;;;1.17;1.08;;;;;;;23.54;52.10;93374.25;6041630;23;20023;-91
2022/08/01 01:25:37;;;;;;;1.88;1.73;;;;;;;23.55;52.07;93372.97;6114403;23;20026;-91
2022/08/01 01:28:17;;;;;;;1.27;1.17;;;;;;;23.53;52.26;93376.25;6087276;23;20026;-92
2022/08/01 01:30:43;;;;;;;;;;;;;;;23.55;52.09;93370.94;6114064;23;20050;-91
2022/08/01 01:33:11;;;;;;;1.45;1.27;;;;;;;23.54;52.09;93368.72;6102836;23;19924;-92
2022/08/01 01:35:47;;;;;;;1.20;1.10;;;;;;;23.55;51.97;93370.22;6041147;23;20018;-92
2022/08/01 01:38:19;;;;;;;1.63;1.30;;;;;;;23.51;52.18;93367.75;6042250;23;20113;-91
2022/08/01 01:40:45;;;;;;;1.30;1.20;;;;;;;23.53;52.11;93367.25;6041403;23;20019;-91
2022/08/01 01:43:11;;;;;;;1.60;1.50;;;;;;;23.53;52.05;93364.50;6042655;23;20045;-90
2022/08/01 01:45:36;;;;;;;1.55;1.45;;;;;;;23.51;52.01;93359.50;6038313;23;20023;-92
2022/08/01 01:48:02;;;;;;;1.92;1.30;;;;;;;23.54;52.09;93357.69;6041174;23;20015;-91
2022/08/01 01:50:28;;;;;;;1.23;1.13;;;;;;;23.52;52.10;93352.72;6038960;23;20061;-91
2022/08/01 01:52:54;;;;;;;1.50;1.40;;;;;;;23.54;51.93;93355.66;6031755;23;20022;-91
2022/08/01 01:55:20;;;;;;;1.15;1.05;;;;;;;23.53;51.82;93353.44;6042539;23;20019;-91
2022/08/01 01:57:45;;;;;;;1.27;1.17;;;;;;;23.53;51.93;93356.22;6032233;23;20036;-91
2022/08/01 02:00:11;;;;;;;1.58;1.48;;;;;;;23.54;52.15;93358.44;6042877;23;20018;-93
2022/08/01 02:02:37;;;;;;;1.45;1.20;;;;;;;23.53;51.95;93348.66;6044513;23;20454;-91
2022/08/01 02:05:02;;;;;;;1.33;1.20;;;;;;;23.53;52.11;93347.94;6043674;23;20057;-91
2022/08/01 02:07:28;;;;;;;1.80;1.50;;;;;;;23.51;52.09;93351.22;6041726;23;20014;-90
2022/08/01 02:09:54;;;;;;;1.50;1.30;;;;;;;23.51;52.15;93342.19;6032817;23;20146;-92
2022/08/01 02:12:19;;;;;;;1.60;1.50;;;;;;;23.50;52.18;93340.72;6043023;23;20042;-91
2022/08/01 02:14:45;;;;;;;1.42;1.20;;;;;;;23.51;52.14;93342.94;6042392;23;20025;-91
2022/08/01 02:17:11;;;;;;;1.65;1.10;;;;;;;23.51;52.06;93333.91;6044102;23;20370;-91
2022/08/01 02:19:37;;;;;;;1.30;1.20;;;;;;;23.51;52.12;93337.41;6040447;23;20018;-91
2022/08/01 02:22:16;;;;;;;1.30;1.20;;;;;;;23.49;52.00;93337.22;6040982;23;20026;-91
2022/08/01 02:24:50;;;;;;;1.83;1.67;;;;;;;23.50;52.07;93338.69;6040335;23;20046;-91
2022/08/01 02:27:21;;;;;;;1.27;1.17;;;;;;;23.50;52.13;93335.94;6089260;23;20030;-92
2022/08/01 02:29:55;;;;;;;1.17;1.08;;;;;;;23.50;52.01;93332.44;6029922;23;20033;-90
2022/08/01 02:32:25;;;;;;;1.60;1.20;;;;;;;23.48;52.27;93327.47;6043186;23;20018;-91
2022/08/01 02:34:51;;;;;;;1.33;1.23;;;;;;;23.50;52.13;93335.94;6011532;23;20073;-91
2022/08/01 02:37:16;;;;;;;1.38;1.27;;;;;;;23.52;52.24;93327.88;5989721;23;20014;-91
2022/08/01 02:39:42;;;;;;;2.05;1.40;;;;;;;23.52;52.02;93332.66;5987848;23;20034;-90
2022/08/01 02:42:08;;;;;;;1.50;1.40;;;;;;;23.49;52.10;93323.44;5989730;23;20027;-92
2022/08/01 02:44:36;;;;;;;1.30;1.20;;;;;;;23.50;52.12;93324.91;5989915;23;20018;-91
2022/08/01 02:47:04;;;;;;;1.20;1.02;;;;;;;23.48;52.04;93324.72;5988418;23;20026;-91
2022/08/01 02:49:33;;;;;;;1.58;1.48;;;;;;;23.48;52.21;93321.94;5985459;23;20081;-91
2022/08/01 02:51:59;;;;;;;1.35;1.25;;;;;;;23.48;52.20;93310.91;5989196;23;20050;-92
2022/08/01 02:54:25;;;;;;;1.10;1.00;;;;;;;23.50;52.15;93315.88;5989105;23;20019;-91
2022/08/01 02:56:50;;;;;;;1.83;1.45;;;;;;;23.49;52.13;93314.41;5989585;23;20082;-91
2022/08/01 02:59:17;;;;;;;1.30;1.20;;;;;;;23.48;52.21;93313.66;5983703;23;20328;-91
2022/08/01 03:01:44;;;;;;;1.33;1.23;;;;;;;23.48;52.23;93312.94;5984685;23;20019;-91
2022/08/01 03:04:10;;;;;;;1.30;1.20;;;;;;;23.48;52.21;93316.44;5987320;23;20019;-92
2022/08/01 03:06:35;;;;;;;1.55;1.33;;;;;;;23.48;52.05;93321.94;5989237;23;20030;-91
2022/08/01 03:09:01;;;;;;;1.20;1.10;;;;;;;23.48;52.21;93318.44;5982615;23;20018;-92
2022/08/01 03:11:28;;;;;;;1.75;1.27;;;;;;;23.49;52.07;93320.66;5995009;23;20022;-92
2022/08/01 03:13:53;;;;;;;1.70;1.27;;;;;;;23.48;52.00;93315.69;6039399;23;20021;-90
2022/08/01 03:16:21;;;;;;;1.40;1.30;;;;;;;23.47;52.01;93317.72;6041783;23;20026;-92
2022/08/01 03:18:47;;;;;;;1.33;1.23;;;;;;;23.49;52.09;93328.94;6042761;23;20081;-91
2022/08/01 03:21:12;;;;;;;1.15;1.05;;;;;;;23.46;51.91;93316.25;6025774;23;20478;-91
2022/08/01 03:23:38;;;;;;;1.55;1.45;;;;;;;23.49;52.04;93330.97;5989976;23;20055;-92
2022/08/01 03:26:03;;;;;;;1.20;1.10;;;;;;;23.48;52.01;93318.44;6036038;23;20030;-91
2022/08/01 03:28:28;;;;;;;0.80;0.80;;;;;;;23.50;52.08;93322.16;6033498;23;20025;-91
2022/08/01 03:30:54;;;;;;;1.13;1.00;;;;;;;23.48;52.33;93319.19;6035490;23;20030;-91
2022/08/01 03:33:19;;;;;;;1.20;1.10;;;;;;;23.48;52.16;93321.94;5989939;23;20091;-91
2022/08/01 03:35:48;;;;;;;1.38;1.10;;;;;;;23.46;52.16;93315.50;5990438;23;20082;-91
2022/08/01 03:38:13;;;;;;;1.40;1.25;;;;;;;23.47;51.77;93322.50;6018592;23;20011;-90
2022/08/01 03:40:48;;;;;;;1.42;1.30;;;;;;;23.44;52.19;93320.81;5989039;23;20034;-91
2022/08/01 03:43:30;;;;;;;1.20;1.10;;;;;;;23.45;52.13;93331.31;5987503;23;20022;-92
2022/08/01 03:45:55;;;;;;;1.98;1.70;;;;;;;23.46;51.80;93327.28;6033224;23;20022;-91
2022/08/01 03:48:22;;;;;;;2.33;2.08;;;;;;;23.47;51.78;93320.47;5988875;23;20016;-92
2022/08/01 03:50:51;;;;;;;2.20;2.00;;;;;;;23.45;51.48;93319.53;6034433;23;20079;-90
2022/08/01 03:53:21;;;;;;;3.55;2.40;;;;;;;23.44;51.49;93320.81;6083235;23;20221;-91
2022/08/01 03:55:46;;;;;;;3.33;3.03;;;;;;;23.46;50.86;93323.78;6041519;23;20333;-92
2022/08/01 03:58:12;;;;;;;4.95;3.67;;;;;;;23.44;50.62;93316.03;6043228;23;20463;-92
2022/08/01 04:00:40;;;;;;;4.43;4.03;;;;;;;23.43;50.31;93317.31;6042771;23;20294;-92
2022/08/01 04:03:09;;;;;;;4.82;4.43;;;;;;;23.42;49.88;93315.84;6042721;23;20122;-91
2022/08/01 04:05:35;;;;;;;5.13;4.20;;;;;;;23.43;49.63;93328.34;6040013;23;20014;-91
2022/08/01 04:08:02;;;;;;;5.20;4.63;;;;;;;23.44;49.81;93315.31;6035227;23;20018;-92
2022/08/01 04:10:27;;;;;;;6.07;5.47;;;;;;;23.43;49.50;93322.84;6037563;23;20078;-92
2022/08/01 04:12:53;;;;;;;6.70;5.70;;;;;;;23.42;49.66;93329.66;6043047;23;20093;-91
2022/08/01 04:15:20;;;;;;;8.18;5.60;;;;;;;23.41;49.35;93330.94;6042828;23;20692;-91
2022/08/01 04:17:45;;;;;;;5.85;5.25;;;;;;;23.43;49.31;93331.13;6046605;23;20022;-91
2022/08/01 04:20:11;;;;;;;7.88;5.85;;;;;;;23.41;49.53;93328.16;6013410;23;20026;-91
2022/08/01 04:22:36;;;;;;;6.88;6.15;;;;;;;23.42;48.89;93326.16;5988256;23;20047;-91
2022/08/01 04:25:04;;;;;;;24.27;6.95;;;;;;;23.42;49.13;93323.38;6039597;23;20662;-90
2022/08/01 04:27:32;;;;;;;73.72;59.55;;;;;;;23.33;49.49;93324.66;5988828;23;20023;-92
2022/08/01 04:30:06;;;;;;;49.90;39.70;;;;;;;23.31;49.39;93326.47;6009377;23;20099;-94
2022/08/01 04:32:44;;;;;;;25.42;19.17;;;;;;;23.24;49.43;93333.44;6000578;23;20038;-90
2022/08/01 04:35:12;;;;;;;6.88;6.13;;;;;;;23.06;49.47;93329.66;6041101;23;20023;-90
2022/08/01 04:37:44;;;;;;;7.53;5.47;;;;;;;23.10;49.00;93334.84;6020876;23;20029;-93
2022/08/01 04:40:11;;;;;;;37.70;6.10;;;;;;;23.00;49.38;93339.38;6031905;23;20150;-92
2022/08/01 04:42:36;;;;;;;6.22;4.85;;;;;;;22.93;48.83;93334.56;5999429;23;20019;-94
2022/08/01 04:45:12;;;;;;;6.65;4.18;;;;;;;22.95;48.94;93335.47;5983958;23;20024;-91
2022/08/01 04:47:37;;;;;;;5.57;4.93;;;;;;;22.82;49.19;93336.31;5970807;23;20108;-92
2022/08/01 04:50:06;;;;;;;5.68;5.07;;;;;;;22.72;49.30;93340.84;6039156;23;20066;-91
2022/08/01 04:52:34;;;;;;;12.30;5.22;;;;;;;22.67;49.39;93338.97;6066038;23;20030;-93
2022/08/01 04:54:59;;;;;;;9.50;4.70;;;;;;;22.69;49.82;93344.69;6036667;23;20052;-92
2022/08/01 04:57:25;;;;;;;11.88;7.75;;;;;;;22.60;49.50;93342.41;6066109;23;20046;-91
2022/08/01 04:59:56;;;;;;;11.25;7.75;;;;;;;22.60;49.33;93342.41;6040684;23;20026;-92
2022/08/01 05:02:22;;;;;;;38.30;10.25;;;;;;;22.55;50.02;93349.53;6065237;23;20026;-92
2022/08/01 05:04:47;;;;;;;28.38;9.68;;;;;;;22.57;49.83;93341.47;6066369;23;20022;-90
2022/08/01 05:07:12;;;;;;;40.90;11.75;;;;;;;22.56;50.08;93339.25;6058403;23;20022;-91
2022/08/01 05:09:41;;;;;;;22.35;8.63;;;;;;;22.64;49.79;93345.56;6034500;23;20105;-92
2022/08/01 05:12:07;;;;;;;18.38;8.18;;;;;;;22.57;50.16;93351.75;6042294;23;20042;-93
2022/08/01 05:14:32;;;;;;;13.05;6.43;;;;;;;22.60;50.10;93353.41;6041483;23;20156;-92
2022/08/01 05:16:59;;;;;;;17.83;7.55;;;;;;;22.55;50.02;93346.75;6037510;23;20117;-92
2022/08/01 05:19:25;;;;;;;11.07;6.05;;;;;;;22.58;50.24;93344.94;6068208;23;20394;-92
2022/08/01 05:21:50;;;;;;;9.00;5.70;;;;;;;22.54;50.61;93342.53;6065327;23;20018;-91
2022/08/01 05:24:16;;;;;;;19.80;8.10;;;;;;;22.59;50.20;93340.91;6065546;23;20014;-91
2022/08/01 05:26:41;;;;;;;13.65;8.27;;;;;;;22.55;50.07;93346.75;6041314;23;20019;-90
2022/08/01 05:29:07;;;;;;;38.75;15.13;;;;;;;22.60;49.82;93345.16;6086923;23;20497;-93
2022/08/01 05:31:34;;;;;;;17.17;8.40;;;;;;;22.65;50.26;93338.75;6039772;23;20029;-92
2022/08/01 05:34:02;;;;;;;18.10;10.27;;;;;;;22.59;50.08;93349.19;6017364;23;20018;-92
2022/08/01 05:36:27;;;;;;;13.68;8.55;;;;;;;22.56;49.83;93342.72;6020576;23;20039;-93
2022/08/01 05:38:54;;;;;;;17.98;8.60;;;;;;;22.60;50.28;93345.16;6035098;23;20474;-93
2022/08/01 05:41:19;;;;;;;62.70;28.90;;;;;;;22.55;50.29;93349.53;6037134;23;20594;-92
2022/08/01 05:43:45;;;;;;;23.15;12.50;;;;;;;22.64;50.04;93340.03;6033921;23;20019;-91
2022/08/01 05:46:11;;;;;;;16.33;8.10;;;;;;;22.61;50.37;93352.13;6036583;23;20018;-92
2022/08/01 05:48:38;;;;;;;14.48;7.80;;;;;;;22.60;50.37;93349.91;6063159;23;20568;-91
2022/08/01 05:51:05;;;;;;;17.90;9.73;;;;;;;22.59;50.57;93360.19;6035739;23;20015;-91
2022/08/01 05:53:34;;;;;;;14.10;8.57;;;;;;;22.60;50.87;93356.16;6031440;23;20018;-91
2022/08/01 05:56:01;;;;;;;8.77;6.20;;;;;;;22.58;51.00;93362.22;6056055;23;20062;-90
2022/08/01 05:58:27;;;;;;;10.52;7.18;;;;;;;22.56;50.90;93358.53;6047891;23;20018;-90
2022/08/01 06:00:52;;;;;;;15.05;8.07;;;;;;;22.65;50.91;93362.81;6042344;23;20046;-91
2022/08/01 06:03:18;;;;;;;26.55;11.35;;;;;;;22.58;51.08;93370.47;6044191;23;20027;-90
2022/08/01 06:05:43;;;;;;;24.45;11.75;;;;;;;22.58;51.30;93367.00;6012842;23;20071;-92
2022/08/01 06:08:09;;;;;;;19.63;9.82;;;;;;;22.60;51.67;93367.19;6038657;23;20097;-91
2022/08/01 06:10:35;;;;;;;13.45;7.93;;;;;;;22.47;51.65;93375.53;6108168;23;20025;-89
2022/08/01 06:13:02;;;;;;;10.65;6.38;;;;;;;22.51;51.63;93368.44;6067206;23;20450;-91
2022/08/01 06:15:30;;;;;;;7.78;5.57;;;;;;;22.50;51.57;93385.50;6038332;23;20018;-93
2022/08/01 06:17:57;;;;;;;10.40;6.18;;;;;;;22.44;51.93;93371.84;6041182;23;20018;-94
2022/08/01 06:20:22;;;;;;;8.25;6.10;;;;;;;22.50;51.89;93374.47;6039300;23;20050;-89
2022/08/01 06:22:48;;;;;;;8.73;6.65;;;;;;;22.56;51.90;93375.78;6086073;23;20042;-92
2022/08/01 06:25:13;;;;;;;7.72;6.07;;;;;;;22.49;52.18;93370.97;6040734;23;20324;-90
2022/08/01 06:27:40;;;;;;;10.40;6.63;;;;;;;22.42;52.74;93377.16;6039010;23;20022;-91
2022/08/01 06:30:07;;;;;;;6.93;6.13;;;;;;;22.44;52.73;93371.84;6036623;23;20018;-90
2022/08/01 06:32:32;;;;;;;7.13;5.65;;;;;;;22.45;53.01;93378.09;6040050;23;20233;-91
2022/08/01 06:34:58;;;;;;;6.32;4.68;;;;;;;22.41;53.00;93377.69;6040835;23;20026;-90
2022/08/01 06:37:23;;;;;;;17.15;5.03;;;;;;;22.46;53.02;93376.81;6029759;23;20031;-92
2022/08/01 06:39:49;;;;;;;6.32;4.07;;;;;;;22.27;53.39;93384.56;6043580;23;20014;-91
2022/08/01 06:42:15;;;;;;;5.05;3.97;;;;;;;22.32;53.24;93395.41;6037199;23;20022;-90
2022/08/01 06:44:40;;;;;;;13.48;4.82;;;;;;;22.34;53.37;93386.63;6042646;23;20010;-90
2022/08/01 06:47:06;;;;;;;5.95;4.15;;;;;;;22.30;53.34;93395.22;6041483;23;20022;-90
2022/08/01 06:49:31;;;;;;;6.25;4.28;;;;;;;22.40;53.26;93390.72;6038425;23;20026;-89
2022/08/01 06:51:57;;;;;;;6.93;4.90;;;;;;;22.32;53.39;93400.19;6041387;23;20026;-92
2022/08/01 06:54:22;;;;;;;5.20;4.70;;;;;;;22.45;53.46;93397.38;6042757;23;20019;-90
2022/08/01 06:56:48;;;;;;;5.05;4.50;;;;;;;22.46;53.33;93398.84;6027219;23;20022;-90
2022/08/01 06:59:13;;;;;;;6.55;4.68;;;;;;;22.44;53.55;93402.16;6041077;23;20103;-90
2022/08/01 07:01:38;;;;;;;8.18;5.70;;;;;;;22.46;53.74;93407.88;6041352;23;20065;-90
2022/08/01 07:04:05;;;;;;;23.35;7.80;;;;;;;22.50;53.52;93402.03;6041549;23;20022;-92
2022/08/01 07:06:31;;;;;;;16.23;10.02;;;;;;;22.38;53.72;93411.81;6038141;23;20042;-90
2022/08/01 07:08:58;;;;;;;25.55;11.90;;;;;;;22.42;53.66;93412.97;6065937;23;20018;-91
2022/08/01 07:11:23;;;;;;;12.25;8.60;;;;;;;22.43;53.58;93414.44;6059759;23;20029;-91
2022/08/01 07:13:49;;;;;;;17.90;9.07;;;;;;;22.40;53.71;93420.28;6018978;23;20015;-91
2022/08/01 07:16:15;;;;;;;11.85;8.40;;;;;;;22.51;53.45;93411.75;6064904;23;20481;-89
2022/08/01 07:18:40;;;;;;;14.85;9.35;;;;;;;22.48;53.71;93410.09;6014025;23;20506;-93
2022/08/01 07:21:06;;;;;;;18.05;9.63;;;;;;;22.38;53.84;93412.56;6007066;23;20030;-91
2022/08/01 07:23:33;;;;;;;17.80;10.52;;;;;;;22.44;53.68;93417.94;6016764;23;20027;-91
2022/08/01 07:25:58;;;;;;;22.83;11.65;;;;;;;22.41;53.59;93416.25;6082709;23;20010;-94
2022/08/01 07:28:24;;;;;;;22.88;12.20;;;;;;;22.52;53.47;93413.97;6059800;23;20434;-93
2022/08/01 07:30:59;;;;;;;16.50;11.10;;;;;;;22.52;53.78;93413.97;6025006;23;20026;-93
2022/08/01 07:33:24;;;;;;;12.35;7.95;;;;;;;22.58;54.22;93414.56;6030988;23;20009;-92
2022/08/01 07:36:03;;;;;;;13.57;8.57;;;;;;;22.57;55.15;93413.09;6018553;23;20021;-92
2022/08/01 07:38:38;;;;;;;23.83;11.07;;;;;;;22.42;54.60;93415.72;6001059;23;20023;-91
2022/08/01 07:41:06;;;;;;;24.13;9.60;;;;;;;22.54;54.87;93418.94;6020379;23;20026;-94
2022/08/01 07:43:40;;;;;;;20.15;8.73;;;;;;;22.49;54.10;93412.31;5998780;23;20015;-92
2022/08/01 07:46:07;;;;;;;22.83;14.05;;;;;;;22.63;53.51;93420.50;6016016;23;20167;-93
2022/08/01 07:48:33;;;;;;;53.15;33.83;;;;;;;22.60;53.61;93422.28;6018284;23;20027;-92
2022/08/01 07:51:04;;;;;;;55.67;32.88;;;;;;;22.53;53.90;93423.69;5995796;23;20035;-91
2022/08/01 07:53:29;;;;;;;53.25;31.52;;;;;;;22.54;53.85;93416.19;6015517;23;20106;-92
2022/08/01 07:55:55;;;;;;;39.78;22.23;;;;;;;22.65;53.43;93409.66;5989223;23;20117;-92
2022/08/01 07:58:20;;;;;;;24.85;15.55;;;;;;;22.56;53.87;93419.13;5991149;23;20064;-91
2022/08/01 08:00:46;;;;;;;17.98;12.07;;;;;;;22.62;54.06;93425.25;6015969;23;20364;-91
2022/08/01 08:03:11;;;;;;;29.95;19.30;;;;;;;22.55;54.22;93418.41;6011280;23;20023;-93
2022/08/01 08:05:37;;;;;;;30.05;20.55;;;;;;;22.67;54.04;93416.13;6007555;23;20027;-92
2022/08/01 08:08:05;;;;;;;30.98;23.48;;;;;;;22.63;54.46;93426.00;5962627;23;20110;-92
2022/08/01 08:10:30;;;;;;;40.92;25.33;;;;;;;22.64;54.53;93417.19;5919583;23;20028;-91
2022/08/01 08:12:56;;;;;;;31.35;21.00;;;;;;;22.64;54.15;93433.72;5993379;23;20506;-91
2022/08/01 08:15:21;;;;;;;22.85;16.55;;;;;;;22.64;54.30;93430.22;6035068;23;20431;-92
2022/08/01 08:17:46;;;;;;;18.65;15.48;;;;;;;22.57;54.38;93431.63;6035397;23;20347;-92
2022/08/01 08:20:12;;;;;;;15.85;12.80;;;;;;;22.69;54.64;93429.34;5982247;23;20031;-92
2022/08/01 08:22:37;;;;;;;15.88;11.95;;;;;;;22.64;54.63;93435.75;6011839;23;20023;-92
2022/08/01 08:25:04;;;;;;;18.38;12.25;;;;;;;22.63;54.46;93434.25;5977420;23;20314;-92
2022/08/01 08:27:30;;;;;;;13.15;9.23;;;;;;;22.72;54.45;93433.81;5985940;23;20050;-93
2022/08/01 08:29:55;;;;;;;10.15;7.88;;;;;;;22.66;54.33;93433.94;5962873;23;20015;-92
2022/08/01 08:32:21;;;;;;;12.93;7.35;;;;;;;22.69;54.37;93445.91;5964350;23;20023;-92
2022/08/01 08:34:46;;;;;;;14.50;9.85;;;;;;;22.68;55.70;93441.66;5965282;23;20015;-92
2022/08/01 08:37:12;;;;;;;25.60;11.65;;;;;;;22.73;55.24;93446.31;6021006;23;20011;-92
2022/08/01 08:39:38;;;;;;;48.45;14.00;;;;;;;22.77;55.95;93454.94;5995280;23;20108;-92
2022/08/01 08:42:07;;;;;;;21.92;10.77;;;;;;;22.75;55.68;93454.75;6017073;23;20011;-92
2022/08/01 08:44:32;;;;;;;19.17;8.60;;;;;;;22.79;55.46;93452.44;5998652;23;20046;-92
2022/08/01 08:47:05;;;;;;;16.95;6.85;;;;;;;22.82;55.80;93456.88;5988115;23;20019;-91
2022/08/01 08:49:31;;;;;;;12.48;7.13;;;;;;;22.80;55.60;93459.41;6016655;23;20098;-92
2022/08/01 08:51:58;;;;;;;12.07;6.65;;;;;;;22.83;55.78;93459.09;6015702;23;20039;-92
2022/08/01 08:54:26;;;;;;;10.63;5.95;;;;;;;22.85;55.86;93461.31;6034729;23;20020;-92
2022/08/01 08:56:52;;;;;;;18.60;10.77;;;;;;;22.90;56.06;93458.41;6018473;23;20030;-92
2022/08/01 08:59:19;;;;;;;41.90;15.07;;;;;;;22.94;55.57;93454.59;6008716;23;20019;-93
2022/08/01 09:01:44;;;;;;;23.05;10.77;;;;;;;22.89;55.79;93459.69;5993266;23;20015;-91
2022/08/01 09:04:10;;;;;;;36.78;19.30;;;;;;;22.89;55.65;93476.22;6059241;23;20022;-91
2022/08/01 09:06:37;;;;;;;41.63;18.45;;;;;;;22.91;55.58;93470.19;6018132;23;20016;-91
2022/08/01 09:09:04;;;;;;;25.40;13.75;;;;;;;22.90;55.79;93474.97;6006243;23;20020;-92
2022/08/01 09:11:45;;;;;;;21.35;11.95;;;;;;;22.95;55.58;93470.56;6033677;23;20011;-92
2022/08/01 09:14:35;;;;;;;17.98;11.15;;;;;;;22.93;55.86;93467.63;6035403;23;20023;-92
2022/08/01 09:17:10;;;;;;;18.17;9.32;;;;;;;22.94;55.94;93480.13;5939914;23;20016;-92
2022/08/01 09:19:44;;;;;;;19.38;10.75;;;;;;;22.95;56.04;93470.56;5960455;23;20035;-92
2022/08/01 09:22:14;;;;;;;18.63;8.98;;;;;;;23.02;55.87;93477.41;5962275;23;20028;-91
2022/08/01 09:24:40;;;;;;;15.20;7.47;;;;;;;22.94;56.57;93474.63;5956871;23;20023;-92
2022/08/01 09:27:19;;;;;;;9.15;7.10;;;;;;;22.97;56.31;93473.53;5961738;23;20018;-93
2022/08/01 09:29:45;;;;;;;35.10;14.98;;;;;;;22.97;56.47;93467.25;5988813;23;20040;-92
2022/08/01 09:32:10;;;;;;;20.45;9.07;;;;;;;22.99;55.96;93467.47;5951013;24;20024;-91
2022/08/01 09:34:35;;;;;;;17.40;11.00;;;;;;;22.94;56.36;93457.34;5974590;23;20025;-91
2022/08/01 09:37:02;;;;;;;18.75;10.05;;;;;;;22.97;56.09;93468.00;5958530;24;20020;-91
2022/08/01 09:39:37;;;;;;;21.23;9.77;;;;;;;22.98;56.05;93461.22;5929563;24;20080;-93
2022/08/01 09:42:22;;;;;;;11.32;7.95;;;;;;;23.04;56.17;93458.31;5932411;24;20342;-93
2022/08/01 09:44:49;;;;;;;16.42;7.88;;;;;;;23.08;56.30;93458.72;5938062;24;20016;-92
2022/08/01 09:47:14;;;;;;;7.53;6.55;;;;;;;23.07;55.92;93457.25;5959435;23;20135;-93
2022/08/01 09:49:42;;;;;;;14.55;7.97;;;;;;;23.09;55.76;93460.19;5936353;24;20021;-92
2022/08/01 09:52:10;;;;;;;13.13;7.90;;;;;;;23.05;55.38;93462.56;5957453;24;20132;-92
2022/08/01 09:54:37;;;;;;;19.95;12.77;;;;;;;23.09;54.88;93462.97;5987131;23;20099;-92
2022/08/01 09:57:13;;;;;;;17.83;10.65;;;;;;;23.08;55.08;93461.47;5988036;23;20059;-92
2022/08/01 09:59:43;;;;;;;24.65;12.98;;;;;;;23.11;55.12;93455.63;5961732;23;20016;-92
2022/08/01 10:02:15;;;;;;;17.67;9.18;;;;;;;23.06;55.52;93458.53;6014482;23;20019;-93
2022/08/01 10:04:51;;;;;;;17.15;9.57;;;;;;;23.08;55.29;93450.44;6026636;23;20014;-92
2022/08/01 10:07:18;;;;;;;27.92;13.35;;;;;;;23.12;55.23;93448.84;6084237;23;20018;-93
2022/08/01 10:09:44;;;;;;;30.75;16.95;;;;;;;23.08;54.88;93442.19;6013397;23;20115;-93
2022/08/01 10:12:19;;;;;;;25.15;16.75;;;;;;;23.07;55.33;93440.69;5979015;23;20075;-93
2022/08/01 10:14:48;;;;;;;16.38;10.63;;;;;;;23.09;54.63;93433.38;5982847;23;20023;-92
2022/08/01 10:17:15;;;;;;;14.27;8.20;;;;;;;23.05;54.66;93435.72;5988635;23;20015;-92
2022/08/01 10:19:44;;;;;;;9.63;7.45;;;;;;;23.13;53.68;93435.78;6057397;23;20031;-92
2022/08/01 10:22:17;;;;;;;10.82;7.95;;;;;;;23.16;53.77;93426.44;6031211;23;20017;-93
2022/08/01 10:24:44;;;;;;;10.55;6.18;;;;;;;23.19;54.32;93431.59;5940168;23;20091;-93
2022/08/01 10:27:12;;;;;;;13.93;6.15;;;;;;;23.19;53.37;93436.34;6029812;23;20026;-93
2022/08/01 10:29:44;;;;;;;6.57;4.93;;;;;;;23.17;53.71;93438.91;6032908;23;20027;-92
2022/08/01 10:32:09;;;;;;;5.18;4.68;;;;;;;23.20;54.17;93446.84;5981078;23;20057;-92
2022/08/01 10:34:37;;;;;;;6.53;4.55;;;;;;;23.15;54.28;93442.25;6005301;23;20464;-92
2022/08/01 10:37:05;;;;;;;5.43;4.40;;;;;;;23.18;54.01;93443.16;6000076;23;20644;-93
2022/08/01 10:39:31;;;;;;;7.32;4.05;;;;;;;23.24;53.72;93438.97;5992353;23;20027;-93
2022/08/01 10:41:57;;;;;;;5.32;3.40;;;;;;;23.23;53.49;93445.78;5992700;23;20470;-93
2022/08/01 10:44:25;;;;;;;7.30;3.97;;;;;;;23.25;53.26;93443.22;5992065;23;20038;-93
2022/08/01 10:46:52;;;;;;;6.32;3.95;;;;;;;23.25;52.60;93445.97;5990229;23;20411;-94
2022/08/01 10:49:18;;;;;;;7.85;3.40;;;;;;;23.27;52.76;93448.19;6022172;23;20018;-92
2022/08/01 10:51:44;;;;;;;9.45;4.15;;;;;;;23.25;52.72;93448.72;6013540;23;20407;-93
2022/08/01 10:54:10;;;;;;;20.23;6.18;;;;;;;23.17;52.44;93449.94;6015641;23;20737;-90
2022/08/01 10:56:47;;;;;;;13.18;4.53;;;;;;;23.16;51.73;93456.78;6016318;23;20023;-90
2022/08/01 10:59:28;;;;;;;15.98;5.07;;;;;;;23.16;52.06;93442.97;6000865;23;20083;-93
2022/08/01 11:02:00;;;;;;;14.00;5.63;;;;;;;23.13;52.45;93450.31;6039323;23;20026;-92
2022/08/01 11:04:34;;;;;;;10.02;5.80;;;;;;;23.15;52.03;93444.25;6057339;23;20110;-92
2022/08/01 11:07:06;;;;;;;7.93;5.00;;;;;;;23.17;51.89;93442.41;6036927;23;20023;-93
2022/08/01 11:09:49;;;;;;;7.03;4.75;;;;;;;23.16;51.66;93448.50;6010515;23;20030;-92
2022/08/01 11:12:17;;;;;;;6.75;4.53;;;;;;;23.18;52.17;93454.19;6033446;23;20030;-92
2022/08/01 11:14:58;;;;;;;5.68;4.53;;;;;;;23.30;51.62;93451.88;6010477;23;20016;-91
2022/08/01 11:17:50;;;;;;;7.38;4.80;;;;;;;23.14;51.92;93440.75;6059473;23;20074;-92
2022/08/01 11:20:21;;;;;;;9.63;5.60;;;;;;;23.24;51.98;93441.00;6026205;23;20057;-91
2022/08/01 11:22:58;;;;;;;9.63;7.05;;;;;;;23.27;51.61;93445.44;6040284;23;20127;-93
2022/08/01 11:25:26;;;;;;;12.07;8.10;;;;;;;23.29;52.16;93448.38;6096904;23;20065;-92
2022/08/01 11:28:17;;;;;;;10.13;6.18;;;;;;;23.29;51.65;93437.34;6049342;23;20015;-91
2022/08/01 11:31:05;;;;;;;;;;;;;;;23.27;51.86;93448.19;6083444;23;20058;-91
2022/08/01 11:33:47;;;;;;;8.00;6.93;;;;;;;23.24;52.23;93443.75;6109571;23;19904;-91